sensor_id;sensor_type;location;lat;lon;timestamp;P1;durP1;ratioP1;P2;durP2;ratioP2
15516;SDS011;7860;52.030;5.572;2023-08-30T00:00:56;10.67;;;5.68;;
15516;SDS011;7860;52.030;5.572;2023-08-30T00:01:31;9.95;;;5.69;;
15516;SDS011;7860;52.030;5.572;2023-08-30T00:02:31;9.37;;;5.65;;
15516;SDS011;7860;52.030;5.572;2023-08-30T00:03:31;9.51;;;5.55;;
15516;SDS011;7860;52.030;5.572;2023-08-30T00:04:31;9.50;;;5.46;;
15516;SDS011;7860;52.030;5.572;2023-08-30T00:05:32;9.10;;;5.22;;
15516;SDS011;7860;52.030;5.572;2023-08-30T00:06:31;9.04;;;5.18;;
15516;SDS011;7860;52.030;5.572;2023-08-30T00:07:32;11.57;;;5.98;;
15516;SDS011;7860;52.030;5.572;2023-08-30T00:08:32;9.32;;;5.08;;
15516;SDS011;7860;52.030;5.572;2023-08-30T00:09:32;10.81;;;5.51;;
15516;SDS011;7860;52.030;5.572;2023-08-30T00:10:32;10.89;;;5.29;;
15516;SDS011;7860;52.030;5.572;2023-08-30T00:11:32;9.82;;;5.60;;
15516;SDS011;7860;52.030;5.572;2023-08-30T00:12:32;10.02;;;5.39;;
15516;SDS011;7860;52.030;5.572;2023-08-30T00:13:32;9.92;;;5.67;;
15516;SDS011;7860;52.030;5.572;2023-08-30T00:14:32;9.85;;;5.30;;
15516;SDS011;7860;52.030;5.572;2023-08-30T00:15:32;8.83;;;5.31;;
15516;SDS011;7860;52.030;5.572;2023-08-30T00:16:32;8.45;;;5.45;;
15516;SDS011;7860;52.030;5.572;2023-08-30T00:17:32;10.86;;;5.60;;
15516;SDS011;7860;52.030;5.572;2023-08-30T00:18:32;9.61;;;5.41;;
15516;SDS011;7860;52.030;5.572;2023-08-30T00:19:32;8.85;;;5.57;;
15516;SDS011;7860;52.030;5.572;2023-08-30T00:20:32;10.09;;;4.89;;
15516;SDS011;7860;52.030;5.572;2023-08-30T00:21:33;11.54;;;5.69;;
15516;SDS011;7860;52.030;5.572;2023-08-30T00:22:33;10.19;;;5.63;;
15516;SDS011;7860;52.030;5.572;2023-08-30T00:23:33;10.93;;;5.75;;
15516;SDS011;7860;52.030;5.572;2023-08-30T00:24:33;9.89;;;5.69;;
15516;SDS011;7860;52.030;5.572;2023-08-30T00:25:33;9.76;;;5.64;;
15516;SDS011;7860;52.030;5.572;2023-08-30T00:26:33;9.53;;;5.53;;
15516;SDS011;7860;52.030;5.572;2023-08-30T00:27:33;9.87;;;5.61;;
15516;SDS011;7860;52.030;5.572;2023-08-30T00:28:33;8.56;;;5.48;;
15516;SDS011;7860;52.030;5.572;2023-08-30T00:29:33;11.32;;;5.88;;
15516;SDS011;7860;52.030;5.572;2023-08-30T00:30:33;10.96;;;5.45;;
15516;SDS011;7860;52.030;5.572;2023-08-30T00:31:33;9.24;;;5.41;;
15516;SDS011;7860;52.030;5.572;2023-08-30T00:32:33;9.71;;;5.18;;
15516;SDS011;7860;52.030;5.572;2023-08-30T00:33:33;9.84;;;5.85;;
15516;SDS011;7860;52.030;5.572;2023-08-30T00:34:33;10.18;;;5.65;;
15516;SDS011;7860;52.030;5.572;2023-08-30T00:35:33;9.59;;;5.38;;
15516;SDS011;7860;52.030;5.572;2023-08-30T00:36:33;10.38;;;5.67;;
15516;SDS011;7860;52.030;5.572;2023-08-30T00:37:33;10.11;;;5.45;;
15516;SDS011;7860;52.030;5.572;2023-08-30T00:38:33;10.62;;;5.61;;
15516;SDS011;7860;52.030;5.572;2023-08-30T00:39:34;9.96;;;5.48;;
15516;SDS011;7860;52.030;5.572;2023-08-30T00:40:41;10.10;;;5.23;;
15516;SDS011;7860;52.030;5.572;2023-08-30T00:41:34;8.86;;;5.43;;
15516;SDS011;7860;52.030;5.572;2023-08-30T00:42:34;10.29;;;5.72;;
15516;SDS011;7860;52.030;5.572;2023-08-30T00:43:34;9.15;;;5.59;;
15516;SDS011;7860;52.030;5.572;2023-08-30T00:44:34;9.57;;;5.48;;
15516;SDS011;7860;52.030;5.572;2023-08-30T00:45:34;10.10;;;5.70;;
15516;SDS011;7860;52.030;5.572;2023-08-30T00:46:34;10.91;;;5.52;;
15516;SDS011;7860;52.030;5.572;2023-08-30T00:47:34;11.06;;;5.91;;
15516;SDS011;7860;52.030;5.572;2023-08-30T00:48:34;9.80;;;5.81;;
15516;SDS011;7860;52.030;5.572;2023-08-30T00:49:34;10.28;;;5.79;;
15516;SDS011;7860;52.030;5.572;2023-08-30T00:50:34;10.62;;;5.46;;
15516;SDS011;7860;52.030;5.572;2023-08-30T00:51:34;9.94;;;5.42;;
15516;SDS011;7860;52.030;5.572;2023-08-30T00:52:34;10.38;;;6.14;;
15516;SDS011;7860;52.030;5.572;2023-08-30T00:53:34;10.89;;;6.40;;
15516;SDS011;7860;52.030;5.572;2023-08-30T00:54:35;9.97;;;5.98;;
15516;SDS011;7860;52.030;5.572;2023-08-30T00:55:35;11.51;;;6.19;;
15516;SDS011;7860;52.030;5.572;2023-08-30T00:56:35;10.03;;;5.63;;
15516;SDS011;7860;52.030;5.572;2023-08-30T00:57:35;10.99;;;6.21;;
15516;SDS011;7860;52.030;5.572;2023-08-30T00:58:35;11.18;;;6.05;;
15516;SDS011;7860;52.030;5.572;2023-08-30T00:59:35;9.83;;;5.87;;
15516;SDS011;7860;52.030;5.572;2023-08-30T01:00:35;10.57;;;5.82;;
15516;SDS011;7860;52.030;5.572;2023-08-30T01:01:35;10.61;;;5.91;;
15516;SDS011;7860;52.030;5.572;2023-08-30T01:02:35;10.18;;;5.85;;
15516;SDS011;7860;52.030;5.572;2023-08-30T01:03:35;10.11;;;6.30;;
15516;SDS011;7860;52.030;5.572;2023-08-30T01:04:35;10.70;;;6.09;;
15516;SDS011;7860;52.030;5.572;2023-08-30T01:05:35;12.25;;;6.89;;
15516;SDS011;7860;52.030;5.572;2023-08-30T01:06:35;11.82;;;6.59;;
15516;SDS011;7860;52.030;5.572;2023-08-30T01:07:35;10.59;;;5.93;;
15516;SDS011;7860;52.030;5.572;2023-08-30T01:08:35;12.46;;;6.86;;
15516;SDS011;7860;52.030;5.572;2023-08-30T01:09:35;11.58;;;6.60;;
15516;SDS011;7860;52.030;5.572;2023-08-30T01:10:38;13.45;;;7.30;;
15516;SDS011;7860;52.030;5.572;2023-08-30T01:11:36;13.83;;;7.37;;
15516;SDS011;7860;52.030;5.572;2023-08-30T01:12:36;12.86;;;7.97;;
15516;SDS011;7860;52.030;5.572;2023-08-30T01:13:37;12.32;;;6.77;;
15516;SDS011;7860;52.030;5.572;2023-08-30T01:14:38;12.11;;;7.00;;
15516;SDS011;7860;52.030;5.572;2023-08-30T01:15:36;11.57;;;6.51;;
15516;SDS011;7860;52.030;5.572;2023-08-30T01:16:36;10.03;;;6.19;;
15516;SDS011;7860;52.030;5.572;2023-08-30T01:17:36;9.34;;;5.60;;
15516;SDS011;7860;52.030;5.572;2023-08-30T01:18:36;11.16;;;6.09;;
15516;SDS011;7860;52.030;5.572;2023-08-30T01:19:38;8.82;;;5.52;;
15516;SDS011;7860;52.030;5.572;2023-08-30T01:20:37;10.12;;;5.49;;
15516;SDS011;7860;52.030;5.572;2023-08-30T01:21:38;10.22;;;5.43;;
15516;SDS011;7860;52.030;5.572;2023-08-30T01:22:38;9.71;;;5.74;;
15516;SDS011;7860;52.030;5.572;2023-08-30T01:23:38;9.63;;;5.35;;
15516;SDS011;7860;52.030;5.572;2023-08-30T01:24:37;9.13;;;5.35;;
15516;SDS011;7860;52.030;5.572;2023-08-30T01:25:41;10.73;;;5.52;;
15516;SDS011;7860;52.030;5.572;2023-08-30T01:26:38;9.59;;;5.46;;
15516;SDS011;7860;52.030;5.572;2023-08-30T01:27:36;10.04;;;5.73;;
15516;SDS011;7860;52.030;5.572;2023-08-30T01:28:37;9.23;;;5.41;;
15516;SDS011;7860;52.030;5.572;2023-08-30T01:29:37;9.30;;;5.60;;
15516;SDS011;7860;52.030;5.572;2023-08-30T01:30:37;10.47;;;6.17;;
15516;SDS011;7860;52.030;5.572;2023-08-30T01:31:37;10.99;;;5.95;;
15516;SDS011;7860;52.030;5.572;2023-08-30T01:32:37;10.13;;;5.71;;
15516;SDS011;7860;52.030;5.572;2023-08-30T01:33:37;9.24;;;5.89;;
15516;SDS011;7860;52.030;5.572;2023-08-30T01:34:37;10.59;;;5.89;;
15516;SDS011;7860;52.030;5.572;2023-08-30T01:35:37;10.52;;;5.78;;
15516;SDS011;7860;52.030;5.572;2023-08-30T01:36:37;10.17;;;5.54;;
15516;SDS011;7860;52.030;5.572;2023-08-30T01:37:37;9.45;;;5.74;;
15516;SDS011;7860;52.030;5.572;2023-08-30T01:38:37;9.90;;;5.89;;
15516;SDS011;7860;52.030;5.572;2023-08-30T01:39:37;9.65;;;5.55;;
15516;SDS011;7860;52.030;5.572;2023-08-30T01:40:38;13.94;;;6.47;;
15516;SDS011;7860;52.030;5.572;2023-08-30T01:41:37;10.59;;;6.32;;
15516;SDS011;7860;52.030;5.572;2023-08-30T01:42:37;10.18;;;5.93;;
15516;SDS011;7860;52.030;5.572;2023-08-30T01:43:37;10.36;;;6.29;;
15516;SDS011;7860;52.030;5.572;2023-08-30T01:44:38;11.14;;;6.71;;
15516;SDS011;7860;52.030;5.572;2023-08-30T01:45:38;11.53;;;6.76;;
15516;SDS011;7860;52.030;5.572;2023-08-30T01:46:38;10.95;;;6.89;;
15516;SDS011;7860;52.030;5.572;2023-08-30T01:47:38;11.06;;;6.76;;
15516;SDS011;7860;52.030;5.572;2023-08-30T01:48:38;11.26;;;6.83;;
15516;SDS011;7860;52.030;5.572;2023-08-30T01:49:38;12.18;;;6.56;;
15516;SDS011;7860;52.030;5.572;2023-08-30T01:50:38;10.67;;;6.13;;
15516;SDS011;7860;52.030;5.572;2023-08-30T01:51:39;10.49;;;5.86;;
15516;SDS011;7860;52.030;5.572;2023-08-30T01:52:39;11.79;;;6.57;;
15516;SDS011;7860;52.030;5.572;2023-08-30T01:53:39;11.18;;;6.68;;
15516;SDS011;7860;52.030;5.572;2023-08-30T01:54:39;10.46;;;5.97;;
15516;SDS011;7860;52.030;5.572;2023-08-30T01:55:39;10.78;;;6.22;;
15516;SDS011;7860;52.030;5.572;2023-08-30T01:56:39;10.24;;;6.37;;
15516;SDS011;7860;52.030;5.572;2023-08-30T01:57:39;11.37;;;7.10;;
15516;SDS011;7860;52.030;5.572;2023-08-30T01:58:39;10.49;;;6.18;;
15516;SDS011;7860;52.030;5.572;2023-08-30T01:59:39;10.52;;;6.63;;
15516;SDS011;7860;52.030;5.572;2023-08-30T02:00:40;11.67;;;6.57;;
15516;SDS011;7860;52.030;5.572;2023-08-30T02:01:40;10.00;;;6.27;;
15516;SDS011;7860;52.030;5.572;2023-08-30T02:02:40;11.65;;;6.07;;
15516;SDS011;7860;52.030;5.572;2023-08-30T02:03:42;10.29;;;5.90;;
15516;SDS011;7860;52.030;5.572;2023-08-30T02:04:40;11.30;;;6.15;;
15516;SDS011;7860;52.030;5.572;2023-08-30T02:05:43;10.23;;;6.54;;
15516;SDS011;7860;52.030;5.572;2023-08-30T02:06:42;11.51;;;6.23;;
15516;SDS011;7860;52.030;5.572;2023-08-30T02:07:43;10.40;;;6.66;;
15516;SDS011;7860;52.030;5.572;2023-08-30T02:08:40;11.30;;;6.40;;
15516;SDS011;7860;52.030;5.572;2023-08-30T02:09:42;11.95;;;6.30;;
15516;SDS011;7860;52.030;5.572;2023-08-30T02:10:41;10.28;;;5.82;;
15516;SDS011;7860;52.030;5.572;2023-08-30T02:11:40;13.04;;;6.03;;
15516;SDS011;7860;52.030;5.572;2023-08-30T02:12:42;10.10;;;5.37;;
15516;SDS011;7860;52.030;5.572;2023-08-30T02:13:40;10.34;;;6.23;;
15516;SDS011;7860;52.030;5.572;2023-08-30T02:14:41;11.20;;;6.23;;
15516;SDS011;7860;52.030;5.572;2023-08-30T02:15:41;9.78;;;5.72;;
15516;SDS011;7860;52.030;5.572;2023-08-30T02:16:40;11.14;;;6.23;;
15516;SDS011;7860;52.030;5.572;2023-08-30T02:17:41;11.00;;;6.20;;
15516;SDS011;7860;52.030;5.572;2023-08-30T02:18:41;10.27;;;6.27;;
15516;SDS011;7860;52.030;5.572;2023-08-30T02:19:41;10.56;;;6.67;;
15516;SDS011;7860;52.030;5.572;2023-08-30T02:20:41;10.36;;;6.18;;
15516;SDS011;7860;52.030;5.572;2023-08-30T02:21:41;12.43;;;6.57;;
15516;SDS011;7860;52.030;5.572;2023-08-30T02:22:41;10.88;;;6.78;;
15516;SDS011;7860;52.030;5.572;2023-08-30T02:23:41;11.63;;;6.17;;
15516;SDS011;7860;52.030;5.572;2023-08-30T02:24:41;10.10;;;6.23;;
15516;SDS011;7860;52.030;5.572;2023-08-30T02:25:41;10.03;;;5.94;;
15516;SDS011;7860;52.030;5.572;2023-08-30T02:26:41;11.52;;;6.33;;
15516;SDS011;7860;52.030;5.572;2023-08-30T02:27:41;11.09;;;6.87;;
15516;SDS011;7860;52.030;5.572;2023-08-30T02:28:41;9.81;;;5.88;;
15516;SDS011;7860;52.030;5.572;2023-08-30T02:29:41;10.31;;;6.19;;
15516;SDS011;7860;52.030;5.572;2023-08-30T02:30:41;10.58;;;6.75;;
15516;SDS011;7860;52.030;5.572;2023-08-30T02:31:41;10.64;;;6.67;;
15516;SDS011;7860;52.030;5.572;2023-08-30T02:32:42;11.29;;;6.61;;
15516;SDS011;7860;52.030;5.572;2023-08-30T02:33:42;12.51;;;6.97;;
15516;SDS011;7860;52.030;5.572;2023-08-30T02:34:42;11.01;;;6.41;;
15516;SDS011;7860;52.030;5.572;2023-08-30T02:35:42;11.86;;;6.84;;
15516;SDS011;7860;52.030;5.572;2023-08-30T02:36:42;12.27;;;7.36;;
15516;SDS011;7860;52.030;5.572;2023-08-30T02:37:42;12.70;;;7.16;;
15516;SDS011;7860;52.030;5.572;2023-08-30T02:38:42;12.54;;;7.41;;
15516;SDS011;7860;52.030;5.572;2023-08-30T02:39:42;12.00;;;7.04;;
15516;SDS011;7860;52.030;5.572;2023-08-30T02:40:42;12.99;;;6.85;;
15516;SDS011;7860;52.030;5.572;2023-08-30T02:41:42;10.81;;;6.86;;
15516;SDS011;7860;52.030;5.572;2023-08-30T02:42:42;9.96;;;6.12;;
15516;SDS011;7860;52.030;5.572;2023-08-30T02:43:42;13.03;;;7.42;;
15516;SDS011;7860;52.030;5.572;2023-08-30T02:44:42;12.54;;;6.89;;
15516;SDS011;7860;52.030;5.572;2023-08-30T02:45:42;11.44;;;6.93;;
15516;SDS011;7860;52.030;5.572;2023-08-30T02:46:42;12.41;;;7.09;;
15516;SDS011;7860;52.030;5.572;2023-08-30T02:47:44;11.31;;;6.78;;
15516;SDS011;7860;52.030;5.572;2023-08-30T02:48:43;11.45;;;7.15;;
15516;SDS011;7860;52.030;5.572;2023-08-30T02:49:43;12.07;;;7.17;;
15516;SDS011;7860;52.030;5.572;2023-08-30T02:50:43;12.46;;;7.34;;
15516;SDS011;7860;52.030;5.572;2023-08-30T02:51:43;12.19;;;7.48;;
15516;SDS011;7860;52.030;5.572;2023-08-30T02:52:43;11.23;;;6.70;;
15516;SDS011;7860;52.030;5.572;2023-08-30T02:53:43;11.32;;;6.72;;
15516;SDS011;7860;52.030;5.572;2023-08-30T02:54:43;11.35;;;7.02;;
15516;SDS011;7860;52.030;5.572;2023-08-30T02:55:43;14.94;;;7.55;;
15516;SDS011;7860;52.030;5.572;2023-08-30T02:56:43;12.34;;;7.30;;
15516;SDS011;7860;52.030;5.572;2023-08-30T02:57:43;13.85;;;7.72;;
15516;SDS011;7860;52.030;5.572;2023-08-30T02:58:43;11.18;;;6.84;;
15516;SDS011;7860;52.030;5.572;2023-08-30T02:59:43;11.86;;;7.23;;
15516;SDS011;7860;52.030;5.572;2023-08-30T03:00:43;10.92;;;7.07;;
15516;SDS011;7860;52.030;5.572;2023-08-30T03:01:43;13.74;;;7.38;;
15516;SDS011;7860;52.030;5.572;2023-08-30T03:02:43;13.94;;;7.95;;
15516;SDS011;7860;52.030;5.572;2023-08-30T03:03:45;14.06;;;8.18;;
15516;SDS011;7860;52.030;5.572;2023-08-30T03:04:43;13.54;;;7.67;;
15516;SDS011;7860;52.030;5.572;2023-08-30T03:05:44;12.64;;;7.42;;
15516;SDS011;7860;52.030;5.572;2023-08-30T03:06:44;13.88;;;8.03;;
15516;SDS011;7860;52.030;5.572;2023-08-30T03:07:44;13.59;;;7.77;;
15516;SDS011;7860;52.030;5.572;2023-08-30T03:08:44;12.93;;;7.83;;
15516;SDS011;7860;52.030;5.572;2023-08-30T03:09:44;14.10;;;8.03;;
15516;SDS011;7860;52.030;5.572;2023-08-30T03:10:44;14.14;;;7.92;;
15516;SDS011;7860;52.030;5.572;2023-08-30T03:11:44;13.48;;;8.17;;
15516;SDS011;7860;52.030;5.572;2023-08-30T03:12:44;13.73;;;8.00;;
15516;SDS011;7860;52.030;5.572;2023-08-30T03:13:44;13.53;;;7.94;;
15516;SDS011;7860;52.030;5.572;2023-08-30T03:14:44;13.85;;;8.30;;
15516;SDS011;7860;52.030;5.572;2023-08-30T03:15:44;15.31;;;8.28;;
15516;SDS011;7860;52.030;5.572;2023-08-30T03:16:44;12.13;;;7.50;;
15516;SDS011;7860;52.030;5.572;2023-08-30T03:17:44;13.34;;;7.89;;
15516;SDS011;7860;52.030;5.572;2023-08-30T03:18:44;13.26;;;7.68;;
15516;SDS011;7860;52.030;5.572;2023-08-30T03:19:44;12.41;;;7.10;;
15516;SDS011;7860;52.030;5.572;2023-08-30T03:20:44;14.11;;;8.06;;
15516;SDS011;7860;52.030;5.572;2023-08-30T03:21:45;13.05;;;7.92;;
15516;SDS011;7860;52.030;5.572;2023-08-30T03:22:45;13.55;;;7.79;;
15516;SDS011;7860;52.030;5.572;2023-08-30T03:23:45;13.61;;;7.60;;
15516;SDS011;7860;52.030;5.572;2023-08-30T03:24:45;12.97;;;7.73;;
15516;SDS011;7860;52.030;5.572;2023-08-30T03:25:45;13.25;;;7.49;;
15516;SDS011;7860;52.030;5.572;2023-08-30T03:26:45;12.61;;;7.36;;
15516;SDS011;7860;52.030;5.572;2023-08-30T03:27:45;11.90;;;7.46;;
15516;SDS011;7860;52.030;5.572;2023-08-30T03:28:45;13.91;;;7.66;;
15516;SDS011;7860;52.030;5.572;2023-08-30T03:29:45;14.89;;;7.91;;
15516;SDS011;7860;52.030;5.572;2023-08-30T03:30:45;14.90;;;8.07;;
15516;SDS011;7860;52.030;5.572;2023-08-30T03:31:45;13.27;;;8.48;;
15516;SDS011;7860;52.030;5.572;2023-08-30T03:32:45;14.35;;;7.91;;
15516;SDS011;7860;52.030;5.572;2023-08-30T03:33:45;14.56;;;7.96;;
15516;SDS011;7860;52.030;5.572;2023-08-30T03:34:45;14.98;;;8.62;;
15516;SDS011;7860;52.030;5.572;2023-08-30T03:35:46;14.69;;;7.77;;
15516;SDS011;7860;52.030;5.572;2023-08-30T03:36:46;15.40;;;8.04;;
15516;SDS011;7860;52.030;5.572;2023-08-30T03:37:46;13.43;;;7.87;;
15516;SDS011;7860;52.030;5.572;2023-08-30T03:38:47;12.04;;;7.33;;
15516;SDS011;7860;52.030;5.572;2023-08-30T03:39:47;13.83;;;7.41;;
15516;SDS011;7860;52.030;5.572;2023-08-30T03:40:52;13.41;;;7.67;;
15516;SDS011;7860;52.030;5.572;2023-08-30T03:41:48;13.66;;;7.56;;
15516;SDS011;7860;52.030;5.572;2023-08-30T03:42:48;13.96;;;7.13;;
15516;SDS011;7860;52.030;5.572;2023-08-30T03:43:48;12.58;;;7.55;;
15516;SDS011;7860;52.030;5.572;2023-08-30T03:44:48;13.25;;;7.80;;
15516;SDS011;7860;52.030;5.572;2023-08-30T03:45:48;11.31;;;7.47;;
15516;SDS011;7860;52.030;5.572;2023-08-30T03:46:48;13.17;;;7.35;;
15516;SDS011;7860;52.030;5.572;2023-08-30T03:47:48;14.60;;;8.03;;
15516;SDS011;7860;52.030;5.572;2023-08-30T03:48:48;14.37;;;8.05;;
15516;SDS011;7860;52.030;5.572;2023-08-30T03:49:48;14.18;;;7.98;;
15516;SDS011;7860;52.030;5.572;2023-08-30T03:50:48;14.14;;;7.83;;
15516;SDS011;7860;52.030;5.572;2023-08-30T03:51:48;14.28;;;7.96;;
15516;SDS011;7860;52.030;5.572;2023-08-30T03:52:48;12.78;;;7.91;;
15516;SDS011;7860;52.030;5.572;2023-08-30T03:53:48;13.26;;;7.12;;
15516;SDS011;7860;52.030;5.572;2023-08-30T03:54:49;12.36;;;7.50;;
15516;SDS011;7860;52.030;5.572;2023-08-30T03:55:50;13.73;;;7.42;;
15516;SDS011;7860;52.030;5.572;2023-08-30T03:56:49;12.70;;;7.10;;
15516;SDS011;7860;52.030;5.572;2023-08-30T03:57:49;12.49;;;7.63;;
15516;SDS011;7860;52.030;5.572;2023-08-30T03:58:50;13.54;;;6.84;;
15516;SDS011;7860;52.030;5.572;2023-08-30T03:59:50;11.62;;;7.40;;
15516;SDS011;7860;52.030;5.572;2023-08-30T04:00:50;12.70;;;7.18;;
15516;SDS011;7860;52.030;5.572;2023-08-30T04:01:50;13.21;;;6.60;;
15516;SDS011;7860;52.030;5.572;2023-08-30T04:02:50;12.53;;;7.12;;
15516;SDS011;7860;52.030;5.572;2023-08-30T04:03:50;13.29;;;7.31;;
15516;SDS011;7860;52.030;5.572;2023-08-30T04:04:50;11.57;;;6.63;;
15516;SDS011;7860;52.030;5.572;2023-08-30T04:05:54;13.87;;;6.94;;
15516;SDS011;7860;52.030;5.572;2023-08-30T04:06:50;12.22;;;6.83;;
15516;SDS011;7860;52.030;5.572;2023-08-30T04:07:50;11.69;;;6.74;;
15516;SDS011;7860;52.030;5.572;2023-08-30T04:08:50;12.61;;;7.07;;
15516;SDS011;7860;52.030;5.572;2023-08-30T04:09:51;12.93;;;6.81;;
15516;SDS011;7860;52.030;5.572;2023-08-30T04:10:52;12.85;;;6.91;;
15516;SDS011;7860;52.030;5.572;2023-08-30T04:11:51;13.81;;;7.23;;
15516;SDS011;7860;52.030;5.572;2023-08-30T04:12:51;12.05;;;6.43;;
15516;SDS011;7860;52.030;5.572;2023-08-30T04:13:52;11.80;;;6.65;;
15516;SDS011;7860;52.030;5.572;2023-08-30T04:14:52;13.44;;;7.50;;
15516;SDS011;7860;52.030;5.572;2023-08-30T04:15:52;12.13;;;6.73;;
15516;SDS011;7860;52.030;5.572;2023-08-30T04:16:53;14.53;;;7.09;;
15516;SDS011;7860;52.030;5.572;2023-08-30T04:17:53;12.83;;;7.63;;
15516;SDS011;7860;52.030;5.572;2023-08-30T04:18:53;12.94;;;7.50;;
15516;SDS011;7860;52.030;5.572;2023-08-30T04:19:53;12.82;;;7.45;;
15516;SDS011;7860;52.030;5.572;2023-08-30T04:20:53;12.85;;;7.17;;
15516;SDS011;7860;52.030;5.572;2023-08-30T04:21:53;14.69;;;7.64;;
15516;SDS011;7860;52.030;5.572;2023-08-30T04:22:53;11.76;;;7.00;;
15516;SDS011;7860;52.030;5.572;2023-08-30T04:23:53;13.01;;;7.97;;
15516;SDS011;7860;52.030;5.572;2023-08-30T04:24:53;13.86;;;7.88;;
15516;SDS011;7860;52.030;5.572;2023-08-30T04:25:53;14.28;;;7.96;;
15516;SDS011;7860;52.030;5.572;2023-08-30T04:26:53;13.08;;;7.76;;
15516;SDS011;7860;52.030;5.572;2023-08-30T04:27:53;12.49;;;6.83;;
15516;SDS011;7860;52.030;5.572;2023-08-30T04:28:53;13.25;;;7.62;;
15516;SDS011;7860;52.030;5.572;2023-08-30T04:29:53;14.31;;;7.68;;
15516;SDS011;7860;52.030;5.572;2023-08-30T04:30:53;13.49;;;8.07;;
15516;SDS011;7860;52.030;5.572;2023-08-30T04:31:53;12.20;;;7.57;;
15516;SDS011;7860;52.030;5.572;2023-08-30T04:32:53;12.08;;;6.84;;
15516;SDS011;7860;52.030;5.572;2023-08-30T04:33:53;12.41;;;7.63;;
15516;SDS011;7860;52.030;5.572;2023-08-30T04:34:53;12.33;;;7.20;;
15516;SDS011;7860;52.030;5.572;2023-08-30T04:35:54;13.39;;;7.41;;
15516;SDS011;7860;52.030;5.572;2023-08-30T04:36:54;13.51;;;8.24;;
15516;SDS011;7860;52.030;5.572;2023-08-30T04:37:54;15.31;;;8.30;;
15516;SDS011;7860;52.030;5.572;2023-08-30T04:38:54;12.77;;;7.95;;
15516;SDS011;7860;52.030;5.572;2023-08-30T04:39:54;13.39;;;7.81;;
15516;SDS011;7860;52.030;5.572;2023-08-30T04:40:56;11.45;;;6.94;;
15516;SDS011;7860;52.030;5.572;2023-08-30T04:41:54;12.40;;;7.27;;
15516;SDS011;7860;52.030;5.572;2023-08-30T04:42:54;13.52;;;7.32;;
15516;SDS011;7860;52.030;5.572;2023-08-30T04:43:54;11.58;;;7.31;;
15516;SDS011;7860;52.030;5.572;2023-08-30T04:44:54;14.34;;;8.18;;
15516;SDS011;7860;52.030;5.572;2023-08-30T04:45:54;14.35;;;7.84;;
15516;SDS011;7860;52.030;5.572;2023-08-30T04:46:54;13.24;;;7.56;;
15516;SDS011;7860;52.030;5.572;2023-08-30T04:47:55;12.91;;;7.75;;
15516;SDS011;7860;52.030;5.572;2023-08-30T04:48:55;12.84;;;7.87;;
15516;SDS011;7860;52.030;5.572;2023-08-30T04:49:55;14.15;;;8.04;;
15516;SDS011;7860;52.030;5.572;2023-08-30T04:50:59;13.72;;;8.33;;
15516;SDS011;7860;52.030;5.572;2023-08-30T04:51:55;13.26;;;8.37;;
15516;SDS011;7860;52.030;5.572;2023-08-30T04:52:55;13.12;;;8.60;;
15516;SDS011;7860;52.030;5.572;2023-08-30T04:53:55;16.51;;;8.74;;
15516;SDS011;7860;52.030;5.572;2023-08-30T04:54:56;13.74;;;8.53;;
15516;SDS011;7860;52.030;5.572;2023-08-30T04:55:56;13.74;;;8.51;;
15516;SDS011;7860;52.030;5.572;2023-08-30T04:56:57;13.73;;;8.55;;
15516;SDS011;7860;52.030;5.572;2023-08-30T04:57:57;14.61;;;7.89;;
15516;SDS011;7860;52.030;5.572;2023-08-30T04:58:57;14.46;;;9.10;;
15516;SDS011;7860;52.030;5.572;2023-08-30T04:59:58;15.14;;;8.90;;
15516;SDS011;7860;52.030;5.572;2023-08-30T05:00:58;15.94;;;9.77;;
15516;SDS011;7860;52.030;5.572;2023-08-30T05:01:58;14.08;;;9.34;;
15516;SDS011;7860;52.030;5.572;2023-08-30T05:02:58;13.36;;;8.72;;
15516;SDS011;7860;52.030;5.572;2023-08-30T05:03:58;15.32;;;9.20;;
15516;SDS011;7860;52.030;5.572;2023-08-30T05:04:58;15.39;;;9.43;;
15516;SDS011;7860;52.030;5.572;2023-08-30T05:05:58;13.46;;;8.77;;
15516;SDS011;7860;52.030;5.572;2023-08-30T05:06:58;16.20;;;9.20;;
15516;SDS011;7860;52.030;5.572;2023-08-30T05:07:58;15.32;;;8.79;;
15516;SDS011;7860;52.030;5.572;2023-08-30T05:08:58;16.65;;;9.09;;
15516;SDS011;7860;52.030;5.572;2023-08-30T05:09:58;13.17;;;8.65;;
15516;SDS011;7860;52.030;5.572;2023-08-30T05:10:58;14.67;;;8.80;;
15516;SDS011;7860;52.030;5.572;2023-08-30T05:11:58;13.03;;;8.31;;
15516;SDS011;7860;52.030;5.572;2023-08-30T05:12:58;14.39;;;8.85;;
15516;SDS011;7860;52.030;5.572;2023-08-30T05:13:58;14.64;;;9.34;;
15516;SDS011;7860;52.030;5.572;2023-08-30T05:14:58;14.48;;;8.74;;
15516;SDS011;7860;52.030;5.572;2023-08-30T05:15:58;13.21;;;8.04;;
15516;SDS011;7860;52.030;5.572;2023-08-30T05:16:58;13.89;;;8.61;;
15516;SDS011;7860;52.030;5.572;2023-08-30T05:17:59;13.77;;;8.67;;
15516;SDS011;7860;52.030;5.572;2023-08-30T05:18:59;15.71;;;9.28;;
15516;SDS011;7860;52.030;5.572;2023-08-30T05:19:59;14.55;;;9.34;;
15516;SDS011;7860;52.030;5.572;2023-08-30T05:20:59;16.30;;;8.81;;
15516;SDS011;7860;52.030;5.572;2023-08-30T05:21:59;13.58;;;8.72;;
15516;SDS011;7860;52.030;5.572;2023-08-30T05:22:59;15.51;;;8.68;;
15516;SDS011;7860;52.030;5.572;2023-08-30T05:23:59;14.03;;;8.74;;
15516;SDS011;7860;52.030;5.572;2023-08-30T05:24:59;13.63;;;8.74;;
15516;SDS011;7860;52.030;5.572;2023-08-30T05:25:59;14.03;;;9.29;;
15516;SDS011;7860;52.030;5.572;2023-08-30T05:26:59;14.93;;;9.20;;
15516;SDS011;7860;52.030;5.572;2023-08-30T05:27:59;13.83;;;8.27;;
15516;SDS011;7860;52.030;5.572;2023-08-30T05:28:59;15.30;;;9.02;;
15516;SDS011;7860;52.030;5.572;2023-08-30T05:29:59;13.73;;;8.52;;
15516;SDS011;7860;52.030;5.572;2023-08-30T05:30:59;12.87;;;8.33;;
15516;SDS011;7860;52.030;5.572;2023-08-30T05:31:59;13.87;;;8.79;;
15516;SDS011;7860;52.030;5.572;2023-08-30T05:32:59;15.52;;;9.22;;
15516;SDS011;7860;52.030;5.572;2023-08-30T05:33:59;12.83;;;8.40;;
15516;SDS011;7860;52.030;5.572;2023-08-30T05:34:59;14.79;;;8.81;;
15516;SDS011;7860;52.030;5.572;2023-08-30T05:35:59;14.29;;;8.63;;
15516;SDS011;7860;52.030;5.572;2023-08-30T05:36:59;14.86;;;8.90;;
15516;SDS011;7860;52.030;5.572;2023-08-30T05:38:00;14.98;;;8.96;;
15516;SDS011;7860;52.030;5.572;2023-08-30T05:39:00;14.04;;;8.42;;
15516;SDS011;7860;52.030;5.572;2023-08-30T05:40:00;13.28;;;8.68;;
15516;SDS011;7860;52.030;5.572;2023-08-30T05:41:00;16.40;;;8.63;;
15516;SDS011;7860;52.030;5.572;2023-08-30T05:42:00;14.35;;;9.18;;
15516;SDS011;7860;52.030;5.572;2023-08-30T05:43:00;14.76;;;8.66;;
15516;SDS011;7860;52.030;5.572;2023-08-30T05:44:00;13.63;;;8.49;;
15516;SDS011;7860;52.030;5.572;2023-08-30T05:45:00;13.95;;;9.19;;
15516;SDS011;7860;52.030;5.572;2023-08-30T05:46:00;15.52;;;9.00;;
15516;SDS011;7860;52.030;5.572;2023-08-30T05:47:00;14.66;;;8.65;;
15516;SDS011;7860;52.030;5.572;2023-08-30T05:48:00;14.88;;;8.88;;
15516;SDS011;7860;52.030;5.572;2023-08-30T05:49:00;13.79;;;8.42;;
15516;SDS011;7860;52.030;5.572;2023-08-30T05:50:00;15.90;;;8.63;;
15516;SDS011;7860;52.030;5.572;2023-08-30T05:51:00;15.03;;;9.14;;
15516;SDS011;7860;52.030;5.572;2023-08-30T05:52:02;12.76;;;8.18;;
15516;SDS011;7860;52.030;5.572;2023-08-30T05:53:02;16.14;;;9.42;;
15516;SDS011;7860;52.030;5.572;2023-08-30T05:54:02;16.54;;;9.17;;
15516;SDS011;7860;52.030;5.572;2023-08-30T05:55:02;14.06;;;8.93;;
15516;SDS011;7860;52.030;5.572;2023-08-30T05:56:02;16.06;;;8.99;;
15516;SDS011;7860;52.030;5.572;2023-08-30T05:57:02;15.26;;;8.03;;
15516;SDS011;7860;52.030;5.572;2023-08-30T05:58:02;14.74;;;8.84;;
15516;SDS011;7860;52.030;5.572;2023-08-30T05:59:02;15.21;;;8.40;;
15516;SDS011;7860;52.030;5.572;2023-08-30T06:00:02;12.54;;;8.08;;
15516;SDS011;7860;52.030;5.572;2023-08-30T06:01:03;12.69;;;8.05;;
15516;SDS011;7860;52.030;5.572;2023-08-30T06:02:02;16.72;;;8.77;;
15516;SDS011;7860;52.030;5.572;2023-08-30T06:03:03;11.72;;;7.77;;